sensor_id;sensor_type;location;lat;lon;timestamp;temperature;humidity
31725;DHT22;18306;40.960;14.836;2023-04-03T00:00:55;15.80;99.90
31725;DHT22;18306;40.960;14.836;2023-04-03T00:03:22;15.70;99.90
31725;DHT22;18306;40.960;14.836;2023-04-03T00:05:50;15.80;99.90
31725;DHT22;18306;40.960;14.836;2023-04-03T00:08:18;15.80;99.90
31725;DHT22;18306;40.960;14.836;2023-04-03T00:10:45;15.90;99.90
31725;DHT22;18306;40.960;14.836;2023-04-03T00:13:12;15.80;99.90
31725;DHT22;18306;40.960;14.836;2023-04-03T00:15:40;15.70;99.90
31725;DHT22;18306;40.960;14.836;2023-04-03T00:18:07;15.70;99.90
31725;DHT22;18306;40.960;14.836;2023-04-03T00:20:35;15.70;99.90
31725;DHT22;18306;40.960;14.836;2023-04-03T00:23:02;15.60;99.90
31725;DHT22;18306;40.960;14.836;2023-04-03T00:25:29;15.50;99.90
31725;DHT22;18306;40.960;14.836;2023-04-03T00:27:56;15.50;99.90
31725;DHT22;18306;40.960;14.836;2023-04-03T00:30:23;15.60;99.90
31725;DHT22;18306;40.960;14.836;2023-04-03T00:32:51;15.60;99.90
31725;DHT22;18306;40.960;14.836;2023-04-03T00:35:20;15.70;99.90
31725;DHT22;18306;40.960;14.836;2023-04-03T00:37:48;15.70;99.90
31725;DHT22;18306;40.960;14.836;2023-04-03T00:40:17;15.90;99.90
31725;DHT22;18306;40.960;14.836;2023-04-03T00:42:46;15.80;99.90
31725;DHT22;18306;40.960;14.836;2023-04-03T00:47:41;15.80;99.90
31725;DHT22;18306;40.960;14.836;2023-04-03T00:50:08;15.80;99.90
31725;DHT22;18306;40.960;14.836;2023-04-03T00:52:37;15.90;99.90
31725;DHT22;18306;40.960;14.836;2023-04-03T00:55:07;15.80;99.90
31725;DHT22;18306;40.960;14.836;2023-04-03T00:57:35;15.90;99.90
31725;DHT22;18306;40.960;14.836;2023-04-03T01:00:09;15.90;99.90
31725;DHT22;18306;40.960;14.836;2023-04-03T01:02:36;15.80;99.90
31725;DHT22;18306;40.960;14.836;2023-04-03T01:05:05;15.80;99.90
31725;DHT22;18306;40.960;14.836;2023-04-03T01:07:33;15.80;99.90
31725;DHT22;18306;40.960;14.836;2023-04-03T01:10:05;15.80;99.90
31725;DHT22;18306;40.960;14.836;2023-04-03T01:12:38;15.80;99.90
31725;DHT22;18306;40.960;14.836;2023-04-03T01:15:16;15.70;99.90
31725;DHT22;18306;40.960;14.836;2023-04-03T01:17:49;15.60;99.90
31725;DHT22;18306;40.960;14.836;2023-04-03T01:23:16;15.40;99.90
31725;DHT22;18306;40.960;14.836;2023-04-03T01:25:52;15.50;99.90
31725;DHT22;18306;40.960;14.836;2023-04-03T01:28:29;15.60;99.90
31725;DHT22;18306;40.960;14.836;2023-04-03T01:33:44;15.50;99.90
31725;DHT22;18306;40.960;14.836;2023-04-03T01:36:25;15.50;99.90
31725;DHT22;18306;40.960;14.836;2023-04-03T01:38:53;15.40;99.90
31725;DHT22;18306;40.960;14.836;2023-04-03T01:41:20;15.20;99.90
31725;DHT22;18306;40.960;14.836;2023-04-03T01:43:49;15.30;99.90
31725;DHT22;18306;40.960;14.836;2023-04-03T01:46:17;15.30;99.90
31725;DHT22;18306;40.960;14.836;2023-04-03T01:48:44;15.30;99.90
31725;DHT22;18306;40.960;14.836;2023-04-03T01:51:12;15.30;99.90
31725;DHT22;18306;40.960;14.836;2023-04-03T01:53:39;15.30;99.90
31725;DHT22;18306;40.960;14.836;2023-04-03T01:56:06;15.30;99.90
31725;DHT22;18306;40.960;14.836;2023-04-03T01:58:34;15.30;99.90
31725;DHT22;18306;40.960;14.836;2023-04-03T02:01:01;15.10;99.90
31725;DHT22;18306;40.960;14.836;2023-04-03T02:03:30;14.90;99.90
31725;DHT22;18306;40.960;14.836;2023-04-03T02:05:57;15.00;99.90
31725;DHT22;18306;40.960;14.836;2023-04-03T02:08:24;15.10;99.90
31725;DHT22;18306;40.960;14.836;2023-04-03T02:10:51;15.00;99.90
31725;DHT22;18306;40.960;14.836;2023-04-03T02:13:19;14.90;99.90
31725;DHT22;18306;40.960;14.836;2023-04-03T02:15:46;14.90;99.90
31725;DHT22;18306;40.960;14.836;2023-04-03T02:18:17;14.90;99.90
31725;DHT22;18306;40.960;14.836;2023-04-03T02:20:46;14.90;99.90
31725;DHT22;18306;40.960;14.836;2023-04-03T02:23:14;14.90;99.90
31725;DHT22;18306;40.960;14.836;2023-04-03T02:25:43;14.90;99.90
31725;DHT22;18306;40.960;14.836;2023-04-03T02:28:10;14.90;99.90
31725;DHT22;18306;40.960;14.836;2023-04-03T02:30:37;15.00;99.90
31725;DHT22;18306;40.960;14.836;2023-04-03T02:33:05;15.00;99.90
31725;DHT22;18306;40.960;14.836;2023-04-03T02:35:32;15.00;99.90
31725;DHT22;18306;40.960;14.836;2023-04-03T02:37:59;15.20;99.90
31725;DHT22;18306;40.960;14.836;2023-04-03T02:40:26;15.20;99.90
31725;DHT22;18306;40.960;14.836;2023-04-03T02:42:53;15.20;99.90
31725;DHT22;18306;40.960;14.836;2023-04-03T02:45:22;15.10;99.90
31725;DHT22;18306;40.960;14.836;2023-04-03T02:47:49;15.00;99.90
31725;DHT22;18306;40.960;14.836;2023-04-03T02:50:16;15.10;99.90
31725;DHT22;18306;40.960;14.836;2023-04-03T02:52:43;15.00;99.90
31725;DHT22;18306;40.960;14.836;2023-04-03T02:55:13;14.90;99.90
31725;DHT22;18306;40.960;14.836;2023-04-03T02:57:41;14.90;99.90
31725;DHT22;18306;40.960;14.836;2023-04-03T03:00:09;14.80;99.90
31725;DHT22;18306;40.960;14.836;2023-04-03T03:02:36;14.90;99.90
31725;DHT22;18306;40.960;14.836;2023-04-03T03:05:03;14.90;99.90
31725;DHT22;18306;40.960;14.836;2023-04-03T03:07:31;14.80;99.90
31725;DHT22;18306;40.960;14.836;2023-04-03T03:09:58;15.00;99.90
31725;DHT22;18306;40.960;14.836;2023-04-03T03:12:27;15.00;99.90
31725;DHT22;18306;40.960;14.836;2023-04-03T03:14:53;14.90;99.90
31725;DHT22;18306;40.960;14.836;2023-04-03T03:17:21;14.90;99.90
31725;DHT22;18306;40.960;14.836;2023-04-03T03:19:48;15.00;99.90
31725;DHT22;18306;40.960;14.836;2023-04-03T03:22:16;15.00;99.90
31725;DHT22;18306;40.960;14.836;2023-04-03T03:24:43;14.90;99.90
31725;DHT22;18306;40.960;14.836;2023-04-03T03:27:10;14.80;99.90
31725;DHT22;18306;40.960;14.836;2023-04-03T03:29:38;14.80;99.90
31725;DHT22;18306;40.960;14.836;2023-04-03T03:32:06;14.80;99.90
31725;DHT22;18306;40.960;14.836;2023-04-03T03:34:33;14.70;99.90
31725;DHT22;18306;40.960;14.836;2023-04-03T03:37:00;14.60;99.90
31725;DHT22;18306;40.960;14.836;2023-04-03T03:39:28;14.50;99.90
31725;DHT22;18306;40.960;14.836;2023-04-03T03:41:57;14.50;99.90
31725;DHT22;18306;40.960;14.836;2023-04-03T03:44:24;14.50;99.90
31725;DHT22;18306;40.960;14.836;2023-04-03T03:46:53;14.40;99.90
31725;DHT22;18306;40.960;14.836;2023-04-03T03:49:20;14.40;99.90
31725;DHT22;18306;40.960;14.836;2023-04-03T03:51:47;14.50;99.90
31725;DHT22;18306;40.960;14.836;2023-04-03T03:54:14;14.40;99.90
31725;DHT22;18306;40.960;14.836;2023-04-03T03:56:42;14.30;99.90
31725;DHT22;18306;40.960;14.836;2023-04-03T03:59:11;14.10;99.90
31725;DHT22;18306;40.960;14.836;2023-04-03T04:01:39;14.10;99.90
31725;DHT22;18306;40.960;14.836;2023-04-03T04:04:06;14.10;99.90
31725;DHT22;18306;40.960;14.836;2023-04-03T04:06:33;14.20;99.90
31725;DHT22;18306;40.960;14.836;2023-04-03T04:09:04;14.30;99.90
31725;DHT22;18306;40.960;14.836;2023-04-03T04:11:32;14.30;99.90
31725;DHT22;18306;40.960;14.836;2023-04-03T04:14:00;14.20;99.90
31725;DHT22;18306;40.960;14.836;2023-04-03T04:16:29;14.30;99.90
31725;DHT22;18306;40.960;14.836;2023-04-03T04:18:59;14.40;99.90
31725;DHT22;18306;40.960;14.836;2023-04-03T04:21:26;14.50;99.90
31725;DHT22;18306;40.960;14.836;2023-04-03T04:23:54;14.60;99.90
31725;DHT22;18306;40.960;14.836;2023-04-03T04:26:22;14.70;99.90
31725;DHT22;18306;40.960;14.836;2023-04-03T04:28:50;14.50;99.90
31725;DHT22;18306;40.960;14.836;2023-04-03T04:31:18;14.60;99.90
31725;DHT22;18306;40.960;14.836;2023-04-03T04:33:46;14.50;99.90
31725;DHT22;18306;40.960;14.836;2023-04-03T04:36:15;14.50;99.90
31725;DHT22;18306;40.960;14.836;2023-04-03T04:38:44;14.50;99.90
31725;DHT22;18306;40.960;14.836;2023-04-03T04:41:11;14.60;99.90
31725;DHT22;18306;40.960;14.836;2023-04-03T04:43:38;14.70;99.90
31725;DHT22;18306;40.960;14.836;2023-04-03T04:46:08;14.80;99.90
31725;DHT22;18306;40.960;14.836;2023-04-03T04:48:41;14.70;99.90
31725;DHT22;18306;40.960;14.836;2023-04-03T04:51:09;14.90;99.90
31725;DHT22;18306;40.960;14.836;2023-04-03T04:53:38;15.00;99.90
31725;DHT22;18306;40.960;14.836;2023-04-03T04:56:06;15.10;99.90
31725;DHT22;18306;40.960;14.836;2023-04-03T04:58:34;15.20;99.90
31725;DHT22;18306;40.960;14.836;2023-04-03T05:01:04;15.00;99.90
31725;DHT22;18306;40.960;14.836;2023-04-03T05:03:34;14.70;99.90
31725;DHT22;18306;40.960;14.836;2023-04-03T05:06:01;14.80;99.90
31725;DHT22;18306;40.960;14.836;2023-04-03T05:08:31;14.80;99.90
31725;DHT22;18306;40.960;14.836;2023-04-03T05:11:01;14.90;99.90
31725;DHT22;18306;40.960;14.836;2023-04-03T05:14:00;14.80;99.90
31725;DHT22;18306;40.960;14.836;2023-04-03T05:16:52;15.00;99.90
31725;DHT22;18306;40.960;14.836;2023-04-03T05:19:27;15.00;99.90
31725;DHT22;18306;40.960;14.836;2023-04-03T05:22:09;15.00;99.90
31725;DHT22;18306;40.960;14.836;2023-04-03T05:24:54;15.00;99.90
31725;DHT22;18306;40.960;14.836;2023-04-03T05:27:28;15.00;99.90
31725;DHT22;18306;40.960;14.836;2023-04-03T05:29:58;15.10;99.90
31725;DHT22;18306;40.960;14.836;2023-04-03T05:32:27;15.10;99.90
31725;DHT22;18306;40.960;14.836;2023-04-03T05:35:08;15.10;99.90
31725;DHT22;18306;40.960;14.836;2023-04-03T05:37:50;15.00;99.90
31725;DHT22;18306;40.960;14.836;2023-04-03T05:40:21;15.10;99.90
31725;DHT22;18306;40.960;14.836;2023-04-03T05:42:51;14.90;99.90
31725;DHT22;18306;40.960;14.836;2023-04-03T05:45:22;14.90;99.90
31725;DHT22;18306;40.960;14.836;2023-04-03T05:47:49;14.90;99.90
31725;DHT22;18306;40.960;14.836;2023-04-03T05:50:16;14.80;99.90
31725;DHT22;18306;40.960;14.836;2023-04-03T05:52:45;14.80;99.90
31725;DHT22;18306;40.960;14.836;2023-04-03T05:55:14;14.90;99.90
31725;DHT22;18306;40.960;14.836;2023-04-03T05:57:41;15.00;99.90
31725;DHT22;18306;40.960;14.836;2023-04-03T06:00:11;15.10;99.90
31725;DHT22;18306;40.960;14.836;2023-04-03T06:02:43;15.10;99.90
31725;DHT22;18306;40.960;14.836;2023-04-03T06:05:16;14.90;99.90
31725;DHT22;18306;40.960;14.836;2023-04-03T06:07:45;14.80;99.90
31725;DHT22;18306;40.960;14.836;2023-04-03T06:10:13;14.80;99.90
31725;DHT22;18306;40.960;14.836;2023-04-03T06:12:41;14.90;99.90
31725;DHT22;18306;40.960;14.836;2023-04-03T06:15:09;14.80;99.90
31725;DHT22;18306;40.960;14.836;2023-04-03T06:17:40;15.00;99.90
31725;DHT22;18306;40.960;14.836;2023-04-03T06:20:10;15.20;99.90
31725;DHT22;18306;40.960;14.836;2023-04-03T06:22:39;15.20;99.90
31725;DHT22;18306;40.960;14.836;2023-04-03T06:25:08;15.20;99.90
31725;DHT22;18306;40.960;14.836;2023-04-03T06:27:36;15.20;99.90
31725;DHT22;18306;40.960;14.836;2023-04-03T06:30:04;15.30;99.90
31725;DHT22;18306;40.960;14.836;2023-04-03T06:32:32;15.40;99.90
31725;DHT22;18306;40.960;14.836;2023-04-03T06:34:59;15.30;99.90
31725;DHT22;18306;40.960;14.836;2023-04-03T06:37:27;15.10;99.90
31725;DHT22;18306;40.960;14.836;2023-04-03T06:39:55;15.10;99.90
31725;DHT22;18306;40.960;14.836;2023-04-03T06:42:23;15.10;99.90
31725;DHT22;18306;40.960;14.836;2023-04-03T06:45:07;15.10;99.90
31725;DHT22;18306;40.960;14.836;2023-04-03T06:47:34;15.10;99.90
31725;DHT22;18306;40.960;14.836;2023-04-03T06:50:01;15.10;99.90
31725;DHT22;18306;40.960;14.836;2023-04-03T06:52:28;15.10;99.90
31725;DHT22;18306;40.960;14.836;2023-04-03T06:54:57;15.10;99.90
31725;DHT22;18306;40.960;14.836;2023-04-03T06:57:44;15.10;99.90
31725;DHT22;18306;40.960;14.836;2023-04-03T07:00:19;15.10;99.90
31725;DHT22;18306;40.960;14.836;2023-04-03T07:02:56;15.20;99.90
31725;DHT22;18306;40.960;14.836;2023-04-03T07:05:38;15.20;99.90
31725;DHT22;18306;40.960;14.836;2023-04-03T07:08:26;15.30;99.90
31725;DHT22;18306;40.960;14.836;2023-04-03T07:10:56;15.50;99.90
31725;DHT22;18306;40.960;14.836;2023-04-03T07:13:23;15.60;99.90
31725;DHT22;18306;40.960;14.836;2023-04-03T07:15:50;15.50;99.90
31725;DHT22;18306;40.960;14.836;2023-04-03T07:18:18;15.50;99.90
31725;DHT22;18306;40.960;14.836;2023-04-03T07:20:45;15.50;99.90
31725;DHT22;18306;40.960;14.836;2023-04-03T07:23:12;15.50;99.90
31725;DHT22;18306;40.960;14.836;2023-04-03T07:25:43;15.60;99.90
31725;DHT22;18306;40.960;14.836;2023-04-03T07:28:11;15.50;99.90
31725;DHT22;18306;40.960;14.836;2023-04-03T07:30:49;15.50;99.90
31725;DHT22;18306;40.960;14.836;2023-04-03T07:33:18;15.50;99.90
31725;DHT22;18306;40.960;14.836;2023-04-03T07:35:45;15.60;99.90
31725;DHT22;18306;40.960;14.836;2023-04-03T07:38:12;15.50;99.90
31725;DHT22;18306;40.960;14.836;2023-04-03T07:40:39;15.50;99.90
31725;DHT22;18306;40.960;14.836;2023-04-03T07:43:07;15.40;99.90
31725;DHT22;18306;40.960;14.836;2023-04-03T07:45:36;15.20;99.90
31725;DHT22;18306;40.960;14.836;2023-04-03T07:48:04;15.30;99.90
31725;DHT22;18306;40.960;14.836;2023-04-03T07:50:31;15.40;99.90
31725;DHT22;18306;40.960;14.836;2023-04-03T07:52:59;15.40;99.90
31725;DHT22;18306;40.960;14.836;2023-04-03T07:55:25;15.40;99.90
31725;DHT22;18306;40.960;14.836;2023-04-03T07:57:52;15.50;99.90
31725;DHT22;18306;40.960;14.836;2023-04-03T08:00:20;15.40;99.90
31725;DHT22;18306;40.960;14.836;2023-04-03T08:02:47;15.40;99.90
31725;DHT22;18306;40.960;14.836;2023-04-03T08:05:18;15.20;99.90
31725;DHT22;18306;40.960;14.836;2023-04-03T08:07:45;15.00;99.90
31725;DHT22;18306;40.960;14.836;2023-04-03T08:10:14;15.10;99.90
31725;DHT22;18306;40.960;14.836;2023-04-03T08:12:41;15.00;99.90
31725;DHT22;18306;40.960;14.836;2023-04-03T08:15:09;15.20;99.90
31725;DHT22;18306;40.960;14.836;2023-04-03T08:17:36;15.40;99.90
31725;DHT22;18306;40.960;14.836;2023-04-03T08:20:05;15.50;99.90
31725;DHT22;18306;40.960;14.836;2023-04-03T08:22:34;15.40;99.90
31725;DHT22;18306;40.960;14.836;2023-04-03T08:25:01;15.40;99.90
31725;DHT22;18306;40.960;14.836;2023-04-03T08:27:28;15.40;99.90
31725;DHT22;18306;40.960;14.836;2023-04-03T08:29:56;15.40;99.90
31725;DHT22;18306;40.960;14.836;2023-04-03T08:32:24;15.20;99.90
31725;DHT22;18306;40.960;14.836;2023-04-03T08:34:51;15.20;99.90
31725;DHT22;18306;40.960;14.836;2023-04-03T08:37:19;15.10;99.90
31725;DHT22;18306;40.960;14.836;2023-04-03T08:39:46;15.30;99.90
31725;DHT22;18306;40.960;14.836;2023-04-03T08:42:40;15.40;99.90
31725;DHT22;18306;40.960;14.836;2023-04-03T08:45:12;15.40;99.90
31725;DHT22;18306;40.960;14.836;2023-04-03T08:48:05;15.30;99.90
31725;DHT22;18306;40.960;14.836;2023-04-03T08:50:41;15.20;99.90
31725;DHT22;18306;40.960;14.836;2023-04-03T08:53:24;15.30;99.90
31725;DHT22;18306;40.960;14.836;2023-04-03T08:55:54;15.40;99.90
31725;DHT22;18306;40.960;14.836;2023-04-03T08:58:30;15.30;99.90
31725;DHT22;18306;40.960;14.836;2023-04-03T09:04:02;15.30;99.90
31725;DHT22;18306;40.960;14.836;2023-04-03T09:06:32;15.20;99.90
31725;DHT22;18306;40.960;14.836;2023-04-03T09:11:56;15.10;99.90
31725;DHT22;18306;40.960;14.836;2023-04-03T09:17:00;15.20;99.90
31725;DHT22;18306;40.960;14.836;2023-04-03T09:19:42;15.30;99.90
31725;DHT22;18306;40.960;14.836;2023-04-03T09:22:20;15.30;99.90
31725;DHT22;18306;40.960;14.836;2023-04-03T09:25:02;15.30;99.90
31725;DHT22;18306;40.960;14.836;2023-04-03T09:27:30;15.00;99.90
31725;DHT22;18306;40.960;14.836;2023-04-03T09:29:58;15.10;99.90
31725;DHT22;18306;40.960;14.836;2023-04-03T09:32:33;15.10;99.90
31725;DHT22;18306;40.960;14.836;2023-04-03T09:37:53;15.30;99.90
31725;DHT22;18306;40.960;14.836;2023-04-03T09:42:59;15.10;99.90
31725;DHT22;18306;40.960;14.836;2023-04-03T09:45:33;15.10;99.90
31725;DHT22;18306;40.960;14.836;2023-04-03T09:53:38;15.20;99.90
31725;DHT22;18306;40.960;14.836;2023-04-03T09:56:37;15.30;99.90
31725;DHT22;18306;40.960;14.836;2023-04-03T09:59:15;15.50;99.90
31725;DHT22;18306;40.960;14.836;2023-04-03T10:01:57;15.50;99.90
31725;DHT22;18306;40.960;14.836;2023-04-03T10:04:25;15.50;99.90
31725;DHT22;18306;40.960;14.836;2023-04-03T10:06:54;15.40;99.90
31725;DHT22;18306;40.960;14.836;2023-04-03T10:09:27;15.30;99.90
31725;DHT22;18306;40.960;14.836;2023-04-03T10:12:06;15.20;99.90
31725;DHT22;18306;40.960;14.836;2023-04-03T10:17:25;15.20;99.90
31725;DHT22;18306;40.960;14.836;2023-04-03T10:20:37;15.20;99.90
31725;DHT22;18306;40.960;14.836;2023-04-03T10:25:40;15.30;99.90
31725;DHT22;18306;40.960;14.836;2023-04-03T10:33:54;15.00;99.90
31725;DHT22;18306;40.960;14.836;2023-04-03T10:39:19;14.80;99.90
31725;DHT22;18306;40.960;14.836;2023-04-03T10:42:07;15.00;99.90
31725;DHT22;18306;40.960;14.836;2023-04-03T10:49:54;15.00;99.90
31725;DHT22;18306;40.960;14.836;2023-04-03T10:52:40;15.00;99.90
31725;DHT22;18306;40.960;14.836;2023-04-03T10:55:24;14.90;99.90
31725;DHT22;18306;40.960;14.836;2023-04-03T10:57:56;15.00;99.90
31725;DHT22;18306;40.960;14.836;2023-04-03T11:00:39;15.00;99.90
31725;DHT22;18306;40.960;14.836;2023-04-03T11:03:22;15.00;99.90
31725;DHT22;18306;40.960;14.836;2023-04-03T11:05:53;15.10;99.90
31725;DHT22;18306;40.960;14.836;2023-04-03T11:08:42;15.30;99.90
31725;DHT22;18306;40.960;14.836;2023-04-03T11:11:26;15.50;99.90
31725;DHT22;18306;40.960;14.836;2023-04-03T11:14:11;15.40;99.90
31725;DHT22;18306;40.960;14.836;2023-04-03T11:16:46;15.20;99.90
31725;DHT22;18306;40.960;14.836;2023-04-03T11:19:26;14.90;99.90
31725;DHT22;18306;40.960;14.836;2023-04-03T11:22:24;14.80;99.90
31725;DHT22;18306;40.960;14.836;2023-04-03T11:27:49;14.90;99.90
31725;DHT22;18306;40.960;14.836;2023-04-03T11:30:27;14.80;99.90
31725;DHT22;18306;40.960;14.836;2023-04-03T11:33:04;14.90;99.90
31725;DHT22;18306;40.960;14.836;2023-04-03T11:35:33;15.20;99.90
31725;DHT22;18306;40.960;14.836;2023-04-03T11:38:03;15.30;99.90
31725;DHT22;18306;40.960;14.836;2023-04-03T11:40:35;15.40;99.90
31725;DHT22;18306;40.960;14.836;2023-04-03T11:43:30;15.30;99.90
31725;DHT22;18306;40.960;14.836;2023-04-03T11:46:02;15.30;99.90
31725;DHT22;18306;40.960;14.836;2023-04-03T11:51:01;15.40;99.90
31725;DHT22;18306;40.960;14.836;2023-04-03T11:53:32;15.40;99.90
31725;DHT22;18306;40.960;14.836;2023-04-03T11:56:06;15.40;99.90
31725;DHT22;18306;40.960;14.836;2023-04-03T12:01:54;14.90;99.90
31725;DHT22;18306;40.960;14.836;2023-04-03T12:04:24;14.70;99.90
31725;DHT22;18306;40.960;14.836;2023-04-03T12:06:59;14.70;99.90
31725;DHT22;18306;40.960;14.836;2023-04-03T12:09:33;14.80;99.90
31725;DHT22;18306;40.960;14.836;2023-04-03T12:12:41;14.90;99.90
31725;DHT22;18306;40.960;14.836;2023-04-03T12:15:58;14.80;99.90
31725;DHT22;18306;40.960;14.836;2023-04-03T12:18:44;14.90;99.90
31725;DHT22;18306;40.960;14.836;2023-04-03T12:21:13;15.00;99.90
31725;DHT22;18306;40.960;14.836;2023-04-03T12:24:01;15.10;99.90
31725;DHT22;18306;40.960;14.836;2023-04-03T12:35:28;14.70;99.90
31725;DHT22;18306;40.960;14.836;2023-04-03T12:41:27;15.00;99.90
31725;DHT22;18306;40.960;14.836;2023-04-03T12:44:27;15.10;99.90
31725;DHT22;18306;40.960;14.836;2023-04-03T12:47:00;14.90;99.90
31725;DHT22;18306;40.960;14.836;2023-04-03T12:49:33;14.80;99.90
31725;DHT22;18306;40.960;14.836;2023-04-03T12:52:04;14.90;99.90
31725;DHT22;18306;40.960;14.836;2023-04-03T12:54:40;15.00;99.90
31725;DHT22;18306;40.960;14.836;2023-04-03T12:57:24;14.90;99.90
31725;DHT22;18306;40.960;14.836;2023-04-03T12:59:53;15.00;99.90
31725;DHT22;18306;40.960;14.836;2023-04-03T13:05:04;15.00;99.90
31725;DHT22;18306;40.960;14.836;2023-04-03T13:07:34;14.90;99.90
31725;DHT22;18306;40.960;14.836;2023-04-03T13:12:45;15.00;99.90
31725;DHT22;18306;40.960;14.836;2023-04-03T13:15:27;14.90;99.90
31725;DHT22;18306;40.960;14.836;2023-04-03T13:17:55;14.90;99.90
31725;DHT22;18306;40.960;14.836;2023-04-03T13:20:31;15.00;99.90
31725;DHT22;18306;40.960;14.836;2023-04-03T13:23:02;15.10;99.90
31725;DHT22;18306;40.960;14.836;2023-04-03T13:25:41;15.20;99.90
31725;DHT22;18306;40.960;14.836;2023-04-03T13:28:12;15.00;99.90
31725;DHT22;18306;40.960;14.836;2023-04-03T13:30:40;15.00;99.60
31725;DHT22;18306;40.960;14.836;2023-04-03T13:33:26;15.00;99.80
31725;DHT22;18306;40.960;14.836;2023-04-03T13:36:20;14.80;99.60
31725;DHT22;18306;40.960;14.836;2023-04-03T13:39:04;14.60;99.50
31725;DHT22;18306;40.960;14.836;2023-04-03T13:41:36;14.70;99.90
31725;DHT22;18306;40.960;14.836;2023-04-03T13:44:28;15.10;99.90
31725;DHT22;18306;40.960;14.836;2023-04-03T13:49:42;15.00;99.30
31725;DHT22;18306;40.960;14.836;2023-04-03T13:52:31;15.10;99.20
31725;DHT22;18306;40.960;14.836;2023-04-03T13:58:00;15.70;99.00
31725;DHT22;18306;40.960;14.836;2023-04-03T14:02:57;15.20;98.40
31725;DHT22;18306;40.960;14.836;2023-04-03T14:05:25;15.20;98.50
31725;DHT22;18306;40.960;14.836;2023-04-03T14:07:54;15.30;99.00
31725;DHT22;18306;40.960;14.836;2023-04-03T14:10:22;15.50;98.40
31725;DHT22;18306;40.960;14.836;2023-04-03T14:12:49;15.50;98.30
31725;DHT22;18306;40.960;14.836;2023-04-03T14:15:26;15.50;98.30
31725;DHT22;18306;40.960;14.836;2023-04-03T14:17:54;15.50;98.50
31725;DHT22;18306;40.960;14.836;2023-04-03T14:20:25;15.80;98.30
31725;DHT22;18306;40.960;14.836;2023-04-03T14:22:54;15.50;97.80
31725;DHT22;18306;40.960;14.836;2023-04-03T14:25:21;15.40;97.60
31725;DHT22;18306;40.960;14.836;2023-04-03T14:27:52;15.20;97.60
31725;DHT22;18306;40.960;14.836;2023-04-03T14:30:27;15.20;98.00
31725;DHT22;18306;40.960;14.836;2023-04-03T14:32:55;15.00;98.20
31725;DHT22;18306;40.960;14.836;2023-04-03T14:35:23;15.10;98.40
31725;DHT22;18306;40.960;14.836;2023-04-03T14:37:51;15.20;98.30
31725;DHT22;18306;40.960;14.836;2023-04-03T14:40:25;15.20;97.90
31725;DHT22;18306;40.960;14.836;2023-04-03T14:42:52;15.20;98.30
31725;DHT22;18306;40.960;14.836;2023-04-03T14:45:22;15.20;98.30
31725;DHT22;18306;40.960;14.836;2023-04-03T14:47:51;15.10;98.70
31725;DHT22;18306;40.960;14.836;2023-04-03T14:50:22;15.10;98.30
31725;DHT22;18306;40.960;14.836;2023-04-03T14:52:51;15.10;98.20
31725;DHT22;18306;40.960;14.836;2023-04-03T14:55:20;15.10;98.30
31725;DHT22;18306;40.960;14.836;2023-04-03T14:57:47;15.40;98.20
31725;DHT22;18306;40.960;14.836;2023-04-03T15:00:17;15.40;98.20
31725;DHT22;18306;40.960;14.836;2023-04-03T15:02:45;15.20;98.30
31725;DHT22;18306;40.960;14.836;2023-04-03T15:05:12;15.20;98.10
31725;DHT22;18306;40.960;14.836;2023-04-03T15:07:49;15.00;98.40
31725;DHT22;18306;40.960;14.836;2023-04-03T15:10:23;14.90;97.60
31725;DHT22;18306;40.960;14.836;2023-04-03T15:12:51;14.80;98.00
31725;DHT22;18306;40.960;14.836;2023-04-03T15:15:21;14.80;98.10
31725;DHT22;18306;40.960;14.836;2023-04-03T15:17:54;14.60;98.40
31725;DHT22;18306;40.960;14.836;2023-04-03T15:20:25;14.60;98.40
31725;DHT22;18306;40.960;14.836;2023-04-03T15:22:53;14.60;98.20
31725;DHT22;18306;40.960;14.836;2023-04-03T15:25:23;14.40;98.00
31725;DHT22;18306;40.960;14.836;2023-04-03T15:27:53;14.30;97.80
31725;DHT22;18306;40.960;14.836;2023-04-03T15:30:21;14.10;98.10
31725;DHT22;18306;40.960;14.836;2023-04-03T15:32:48;14.20;98.20
31725;DHT22;18306;40.960;14.836;2023-04-03T15:35:15;14.10;98.10
31725;DHT22;18306;40.960;14.836;2023-04-03T15:37:43;14.20;98.20
31725;DHT22;18306;40.960;14.836;2023-04-03T15:40:11;14.20;98.00
31725;DHT22;18306;40.960;14.836;2023-04-03T15:42:38;14.20;97.80
31725;DHT22;18306;40.960;14.836;2023-04-03T15:45:08;14.20;98.30
31725;DHT22;18306;40.960;14.836;2023-04-03T15:47:36;14.20;98.00
31725;DHT22;18306;40.960;14.836;2023-04-03T15:50:14;14.20;98.20
31725;DHT22;18306;40.960;14.836;2023-04-03T15:52:41;14.20;97.90
31725;DHT22;18306;40.960;14.836;2023-04-03T15:55:08;14.20;98.30
31725;DHT22;18306;40.960;14.836;2023-04-03T15:57:35;14.00;97.70
31725;DHT22;18306;40.960;14.836;2023-04-03T16:00:03;13.80;97.90
31725;DHT22;18306;40.960;14.836;2023-04-03T16:02:33;13.80;98.30
31725;DHT22;18306;40.960;14.836;2023-04-03T16:05:01;13.80;98.40
31725;DHT22;18306;40.960;14.836;2023-04-03T16:07:28;14.00;97.90
31725;DHT22;18306;40.960;14.836;2023-04-03T16:09:56;14.10;97.80
31725;DHT22;18306;40.960;14.836;2023-04-03T16:12:23;14.10;97.60
31725;DHT22;18306;40.960;14.836;2023-04-03T16:14:50;14.20;97.70
31725;DHT22;18306;40.960;14.836;2023-04-03T16:17:18;14.30;97.50
31725;DHT22;18306;40.960;14.836;2023-04-03T16:19:45;14.40;97.80
31725;DHT22;18306;40.960;14.836;2023-04-03T16:22:14;14.30;97.50
31725;DHT22;18306;40.960;14.836;2023-04-03T16:24:45;14.40;97.20
31725;DHT22;18306;40.960;14.836;2023-04-03T16:27:16;14.30;97.30
31725;DHT22;18306;40.960;14.836;2023-04-03T16:29:54;14.30;97.30
31725;DHT22;18306;40.960;14.836;2023-04-03T16:32:22;14.20;97.50
31725;DHT22;18306;40.960;14.836;2023-04-03T16:34:54;14.10;97.40
31725;DHT22;18306;40.960;14.836;2023-04-03T16:37:22;14.10;97.70
31725;DHT22;18306;40.960;14.836;2023-04-03T16:39:50;14.00;97.30
31725;DHT22;18306;40.960;14.836;2023-04-03T16:42:17;14.00;97.50
31725;DHT22;18306;40.960;14.836;2023-04-03T16:44:44;13.90;97.50
31725;DHT22;18306;40.960;14.836;2023-04-03T16:47:12;14.10;97.70
31725;DHT22;18306;40.960;14.836;2023-04-03T16:49:45;14.00;97.10
31725;DHT22;18306;40.960;14.836;2023-04-03T16:52:12;13.90;97.70
31725;DHT22;18306;40.960;14.836;2023-04-03T16:54:39;14.10;97.60
31725;DHT22;18306;40.960;14.836;2023-04-03T16:57:06;14.10;97.50
31725;DHT22;18306;40.960;14.836;2023-04-03T16:59:33;14.00;97.40
31725;DHT22;18306;40.960;14.836;2023-04-03T17:02:00;14.00;97.50